sensor_id;sensor_type;location;lat;lon;timestamp;pressure;altitude;pressure_sealevel;temperature;humidity
55010;BME280;40903;51.638;7.528;2023-05-20T00:01:51;101738.13;;;13.08;68.35
55010;BME280;40903;51.638;7.528;2023-05-20T00:04:17;101744.72;;;13.02;68.87
55010;BME280;40903;51.638;7.528;2023-05-20T00:06:42;101744.72;;;12.97;69.38
55010;BME280;40903;51.638;7.528;2023-05-20T00:09:10;101744.47;;;12.89;69.25
55010;BME280;40903;51.638;7.528;2023-05-20T00:11:35;101740.94;;;12.83;69.54
55010;BME280;40903;51.638;7.528;2023-05-20T00:14:01;101737.09;;;12.84;69.52
55010;BME280;40903;51.638;7.528;2023-05-20T00:16:26;101743.13;;;12.81;70.10
55010;BME280;40903;51.638;7.528;2023-05-20T00:18:51;101745.91;;;12.76;70.53
55010;BME280;40903;51.638;7.528;2023-05-20T00:21:17;101754.16;;;12.71;70.67
55010;BME280;40903;51.638;7.528;2023-05-20T00:23:42;101752.50;;;12.70;70.90
55010;BME280;40903;51.638;7.528;2023-05-20T00:26:07;101743.75;;;12.63;70.41
55010;BME280;40903;51.638;7.528;2023-05-20T00:28:33;101753.59;;;12.64;71.03
55010;BME280;40903;51.638;7.528;2023-05-20T00:30:58;101757.16;;;12.60;71.17
55010;BME280;40903;51.638;7.528;2023-05-20T00:33:23;101750.88;;;12.59;71.91
55010;BME280;40903;51.638;7.528;2023-05-20T00:35:49;101745.16;;;12.56;71.40
55010;BME280;40903;51.638;7.528;2023-05-20T00:38:14;101753.09;;;12.52;72.22
55010;BME280;40903;51.638;7.528;2023-05-20T00:40:39;101748.47;;;12.48;72.75
55010;BME280;40903;51.638;7.528;2023-05-20T00:43:05;101750.09;;;12.44;72.84
55010;BME280;40903;51.638;7.528;2023-05-20T00:45:30;101748.47;;;12.43;73.16
55010;BME280;40903;51.638;7.528;2023-05-20T00:47:56;101738.91;;;12.35;73.39
55010;BME280;40903;51.638;7.528;2023-05-20T00:50:23;101744.94;;;12.32;72.96
55010;BME280;40903;51.638;7.528;2023-05-20T00:52:49;101739.72;;;12.31;73.50
55010;BME280;40903;51.638;7.528;2023-05-20T00:55:15;101743.84;;;12.28;73.82
55010;BME280;40903;51.638;7.528;2023-05-20T00:57:41;101746.31;;;12.30;74.07
55010;BME280;40903;51.638;7.528;2023-05-20T01:00:08;101747.13;;;12.30;73.53
55010;BME280;40903;51.638;7.528;2023-05-20T01:02:34;101749.06;;;12.25;73.49
55010;BME280;40903;51.638;7.528;2023-05-20T01:05:00;101742.50;;;12.16;74.53
55010;BME280;40903;51.638;7.528;2023-05-20T01:07:25;101749.88;;;12.15;74.36
55010;BME280;40903;51.638;7.528;2023-05-20T01:09:51;101737.88;;;12.11;74.90
55010;BME280;40903;51.638;7.528;2023-05-20T01:12:30;101741.13;;;12.08;75.55
55010;BME280;40903;51.638;7.528;2023-05-20T01:15:08;101733.50;;;12.05;75.76
55010;BME280;40903;51.638;7.528;2023-05-20T01:17:37;101739.25;;;11.99;75.25
55010;BME280;40903;51.638;7.528;2023-05-20T01:20:05;101734.31;;;12.01;75.62
55010;BME280;40903;51.638;7.528;2023-05-20T01:22:32;101734.31;;;11.96;76.35
55010;BME280;40903;51.638;7.528;2023-05-20T01:24:58;101730.50;;;11.92;76.21
55010;BME280;40903;51.638;7.528;2023-05-20T01:27:23;101725.59;;;11.89;76.08
55010;BME280;40903;51.638;7.528;2023-05-20T01:29:50;101729.69;;;11.86;76.37
55010;BME280;40903;51.638;7.528;2023-05-20T01:32:25;101729.41;;;11.83;76.82
55010;BME280;40903;51.638;7.528;2023-05-20T01:34:52;101727.50;;;11.78;76.44
55010;BME280;40903;51.638;7.528;2023-05-20T01:37:18;101727.50;;;11.78;76.97
55010;BME280;40903;51.638;7.528;2023-05-20T01:39:44;101725.03;;;11.77;77.21
55010;BME280;40903;51.638;7.528;2023-05-20T01:42:10;101723.38;;;11.71;77.72
55010;BME280;40903;51.638;7.528;2023-05-20T01:44:38;101724.22;;;11.67;77.63
55010;BME280;40903;51.638;7.528;2023-05-20T01:47:03;101720.97;;;11.65;78.59
55010;BME280;40903;51.638;7.528;2023-05-20T01:49:29;101723.69;;;11.65;78.60
55010;BME280;40903;51.638;7.528;2023-05-20T01:51:54;101718.75;;;11.62;78.38
55010;BME280;40903;51.638;7.528;2023-05-20T01:54:20;101728.31;;;11.59;78.22
55010;BME280;40903;51.638;7.528;2023-05-20T01:56:46;101720.91;;;11.55;78.84
55010;BME280;40903;51.638;7.528;2023-05-20T01:59:11;101720.38;;;11.53;78.58
55010;BME280;40903;51.638;7.528;2023-05-20T02:01:37;101717.91;;;11.51;79.03
55010;BME280;40903;51.638;7.528;2023-05-20T02:04:02;101716.81;;;11.47;79.85
55010;BME280;40903;51.638;7.528;2023-05-20T02:06:27;101718.16;;;11.45;79.08
55010;BME280;40903;51.638;7.528;2023-05-20T02:08:53;101720.34;;;11.43;79.35
55010;BME280;40903;51.638;7.528;2023-05-20T02:11:18;101720.91;;;11.40;80.12
55010;BME280;40903;51.638;7.528;2023-05-20T02:13:43;101727.44;;;11.39;80.33
55010;BME280;40903;51.638;7.528;2023-05-20T02:16:09;101721.44;;;11.37;80.22
55010;BME280;40903;51.638;7.528;2023-05-20T02:18:34;101723.34;;;11.36;80.65
55010;BME280;40903;51.638;7.528;2023-05-20T02:21:03;101734.56;;;11.35;80.58
55010;BME280;40903;51.638;7.528;2023-05-20T02:23:29;101726.91;;;11.37;81.20
55010;BME280;40903;51.638;7.528;2023-05-20T02:25:55;101724.97;;;11.37;81.05
55010;BME280;40903;51.638;7.528;2023-05-20T02:28:20;101728.25;;;11.34;81.27
55010;BME280;40903;51.638;7.528;2023-05-20T02:30:45;101729.91;;;11.30;81.55
55010;BME280;40903;51.638;7.528;2023-05-20T02:33:11;101733.16;;;11.27;81.72
55010;BME280;40903;51.638;7.528;2023-05-20T02:35:38;101727.97;;;11.26;82.77
55010;BME280;40903;51.638;7.528;2023-05-20T02:38:03;101721.69;;;11.25;82.81
55010;BME280;40903;51.638;7.528;2023-05-20T02:40:28;101730.16;;;11.24;82.95
55010;BME280;40903;51.638;7.528;2023-05-20T02:42:54;101727.44;;;11.24;83.06
55010;BME280;40903;51.638;7.528;2023-05-20T02:45:20;101731.78;;;11.25;83.20
55010;BME280;40903;51.638;7.528;2023-05-20T02:47:45;101730.41;;;11.22;83.33
55010;BME280;40903;51.638;7.528;2023-05-20T02:50:10;101716.47;;;11.19;83.44
55010;BME280;40903;51.638;7.528;2023-05-20T02:52:36;101720.03;;;11.19;83.98
55010;BME280;40903;51.638;7.528;2023-05-20T02:55:01;101713.19;;;11.17;84.11
55010;BME280;40903;51.638;7.528;2023-05-20T02:57:26;101717.56;;;11.18;84.03
55010;BME280;40903;51.638;7.528;2023-05-20T02:59:53;101714.03;;;11.17;84.30
55010;BME280;40903;51.638;7.528;2023-05-20T03:02:19;101711.84;;;11.14;84.09
55010;BME280;40903;51.638;7.528;2023-05-20T03:04:44;101716.47;;;11.14;84.60
55010;BME280;40903;51.638;7.528;2023-05-20T03:07:11;101708.56;;;11.12;84.86
55010;BME280;40903;51.638;7.528;2023-05-20T03:09:36;101713.44;;;11.10;84.80
55010;BME280;40903;51.638;7.528;2023-05-20T03:12:02;101713.44;;;11.10;84.97
55010;BME280;40903;51.638;7.528;2023-05-20T03:14:27;101705.00;;;11.07;85.57
55010;BME280;40903;51.638;7.528;2023-05-20T03:16:53;101713.44;;;11.05;85.65
55010;BME280;40903;51.638;7.528;2023-05-20T03:19:22;101713.19;;;11.07;85.57
55010;BME280;40903;51.638;7.528;2023-05-20T03:21:50;101719.16;;;11.04;86.20
55010;BME280;40903;51.638;7.528;2023-05-20T03:24:15;101710.19;;;11.03;86.23
55010;BME280;40903;51.638;7.528;2023-05-20T03:26:41;101711.25;;;11.02;86.53
55010;BME280;40903;51.638;7.528;2023-05-20T03:29:08;101711.53;;;11.01;86.56
55010;BME280;40903;51.638;7.528;2023-05-20T03:31:34;101710.44;;;11.02;86.70
55010;BME280;40903;51.638;7.528;2023-05-20T03:34:00;101715.34;;;11.00;86.58
55010;BME280;40903;51.638;7.528;2023-05-20T03:36:25;101713.69;;;10.99;87.00
55010;BME280;40903;51.638;7.528;2023-05-20T03:38:51;101715.63;;;10.98;87.88
55010;BME280;40903;51.638;7.528;2023-05-20T03:41:16;101715.88;;;11.02;87.28
55010;BME280;40903;51.638;7.528;2023-05-20T03:43:41;101715.38;;;11.05;87.35
55010;BME280;40903;51.638;7.528;2023-05-20T03:46:07;101715.38;;;11.05;87.74
55010;BME280;40903;51.638;7.528;2023-05-20T03:48:32;101703.38;;;11.06;87.79
55010;BME280;40903;51.638;7.528;2023-05-20T03:50:58;101707.72;;;11.07;87.48
55010;BME280;40903;51.638;7.528;2023-05-20T03:53:23;101701.72;;;11.05;87.73
55010;BME280;40903;51.638;7.528;2023-05-20T03:55:49;101700.91;;;11.04;88.31
55010;BME280;40903;51.638;7.528;2023-05-20T03:58:14;101700.09;;;11.09;88.42
55010;BME280;40903;51.638;7.528;2023-05-20T04:00:40;101696.28;;;11.10;88.06
55010;BME280;40903;51.638;7.528;2023-05-20T04:03:05;101702.28;;;11.12;87.63
55010;BME280;40903;51.638;7.528;2023-05-20T04:05:31;101701.19;;;11.18;87.65
55010;BME280;40903;51.638;7.528;2023-05-20T04:07:56;101695.47;;;11.24;87.20
55010;BME280;40903;51.638;7.528;2023-05-20T04:10:22;101705.03;;;11.32;87.07
55010;BME280;40903;51.638;7.528;2023-05-20T04:12:48;101697.38;;;11.34;87.01
55010;BME280;40903;51.638;7.528;2023-05-20T04:15:14;101700.13;;;11.39;86.16
55010;BME280;40903;51.638;7.528;2023-05-20T04:17:40;101701.78;;;11.45;86.03
55010;BME280;40903;51.638;7.528;2023-05-20T04:20:06;101699.31;;;11.48;85.79
55010;BME280;40903;51.638;7.528;2023-05-20T04:22:33;101705.63;;;11.54;86.13
55010;BME280;40903;51.638;7.528;2023-05-20T04:24:59;101698.28;;;11.59;86.03
55010;BME280;40903;51.638;7.528;2023-05-20T04:27:24;101704.56;;;11.65;85.69
55010;BME280;40903;51.638;7.528;2023-05-20T04:29:50;101701.53;;;11.71;85.54
55010;BME280;40903;51.638;7.528;2023-05-20T04:32:17;101701.25;;;11.77;85.67
55010;BME280;40903;51.638;7.528;2023-05-20T04:34:44;101699.63;;;11.86;85.74
55010;BME280;40903;51.638;7.528;2023-05-20T04:37:10;101691.94;;;11.93;84.48
55010;BME280;40903;51.638;7.528;2023-05-20T04:39:35;101699.59;;;12.01;84.53
55010;BME280;40903;51.638;7.528;2023-05-20T04:42:01;101699.31;;;12.08;83.84
55010;BME280;40903;51.638;7.528;2023-05-20T04:44:27;101702.88;;;12.13;83.81
55010;BME280;40903;51.638;7.528;2023-05-20T04:46:54;101695.72;;;12.22;83.22
55010;BME280;40903;51.638;7.528;2023-05-20T04:49:20;101700.38;;;12.32;83.69
55010;BME280;40903;51.638;7.528;2023-05-20T04:51:45;101695.69;;;12.42;83.01
55010;BME280;40903;51.638;7.528;2023-05-20T04:54:14;101701.41;;;12.51;81.48
55010;BME280;40903;51.638;7.528;2023-05-20T04:56:42;101690.69;;;12.59;80.21
55010;BME280;40903;51.638;7.528;2023-05-20T04:59:07;101703.25;;;12.70;81.14
55010;BME280;40903;51.638;7.528;2023-05-20T05:01:33;101694.38;;;12.88;79.44
55010;BME280;40903;51.638;7.528;2023-05-20T05:03:59;101700.94;;;12.97;79.36
55010;BME280;40903;51.638;7.528;2023-05-20T05:06:24;101695.44;;;13.02;77.83
55010;BME280;40903;51.638;7.528;2023-05-20T05:08:49;101698.94;;;13.13;77.22
55010;BME280;40903;51.638;7.528;2023-05-20T05:11:15;101706.00;;;13.19;78.83
55010;BME280;40903;51.638;7.528;2023-05-20T05:13:40;101696.69;;;13.20;77.79
55010;BME280;40903;51.638;7.528;2023-05-20T05:16:05;101704.06;;;13.24;77.17
55010;BME280;40903;51.638;7.528;2023-05-20T05:18:31;101696.88;;;13.33;76.70
55010;BME280;40903;51.638;7.528;2023-05-20T05:21:01;101696.84;;;13.38;76.57
55010;BME280;40903;51.638;7.528;2023-05-20T05:23:26;101700.56;;;13.52;78.75
55010;BME280;40903;51.638;7.528;2023-05-20T05:25:52;101700.72;;;13.66;76.37
55010;BME280;40903;51.638;7.528;2023-05-20T05:28:18;101703.13;;;13.77;75.92
55010;BME280;40903;51.638;7.528;2023-05-20T05:30:43;101707.34;;;13.93;75.58
55010;BME280;40903;51.638;7.528;2023-05-20T05:33:08;101708.88;;;14.04;74.67
55010;BME280;40903;51.638;7.528;2023-05-20T05:35:34;101703.31;;;14.14;74.48
55010;BME280;40903;51.638;7.528;2023-05-20T05:37:59;101702.72;;;14.22;73.08
55010;BME280;40903;51.638;7.528;2023-05-20T05:40:25;101696.34;;;14.26;73.44
55010;BME280;40903;51.638;7.528;2023-05-20T05:42:51;101692.69;;;14.36;72.71
55010;BME280;40903;51.638;7.528;2023-05-20T05:45:16;101697.34;;;14.35;71.59
55010;BME280;40903;51.638;7.528;2023-05-20T05:47:42;101687.03;;;14.27;72.11
55010;BME280;40903;51.638;7.528;2023-05-20T05:50:07;101682.75;;;14.40;72.27
55010;BME280;40903;51.638;7.528;2023-05-20T05:52:34;101692.50;;;14.51;71.34
55010;BME280;40903;51.638;7.528;2023-05-20T05:55:00;101689.94;;;14.59;71.69
55010;BME280;40903;51.638;7.528;2023-05-20T05:57:25;101689.00;;;14.69;71.29
55010;BME280;40903;51.638;7.528;2023-05-20T05:59:51;101691.53;;;14.84;71.90
55010;BME280;40903;51.638;7.528;2023-05-20T06:02:16;101683.31;;;14.84;70.32
55010;BME280;40903;51.638;7.528;2023-05-20T06:04:41;101692.44;;;14.98;70.13
55010;BME280;40903;51.638;7.528;2023-05-20T06:07:07;101692.88;;;15.05;70.71
55010;BME280;40903;51.638;7.528;2023-05-20T06:09:32;101688.81;;;15.21;69.97
55010;BME280;40903;51.638;7.528;2023-05-20T06:11:58;101687.25;;;15.15;68.68
55010;BME280;40903;51.638;7.528;2023-05-20T06:14:23;101686.00;;;15.07;69.29
55010;BME280;40903;51.638;7.528;2023-05-20T06:16:48;101680.88;;;15.01;68.53
55010;BME280;40903;51.638;7.528;2023-05-20T06:19:14;101681.50;;;14.74;70.06
55010;BME280;40903;51.638;7.528;2023-05-20T06:21:39;101674.06;;;14.75;69.90
55010;BME280;40903;51.638;7.528;2023-05-20T06:24:05;101674.06;;;14.75;71.16
55010;BME280;40903;51.638;7.528;2023-05-20T06:26:30;101676.97;;;14.83;70.27
55010;BME280;40903;51.638;7.528;2023-05-20T06:28:55;101674.97;;;14.89;71.20
55010;BME280;40903;51.638;7.528;2023-05-20T06:31:21;101679.63;;;15.12;70.57
55010;BME280;40903;51.638;7.528;2023-05-20T06:33:46;101679.25;;;15.18;69.68
55010;BME280;40903;51.638;7.528;2023-05-20T06:36:12;101680.00;;;15.42;68.40
55010;BME280;40903;51.638;7.528;2023-05-20T06:38:37;101665.84;;;15.67;69.02
55010;BME280;40903;51.638;7.528;2023-05-20T06:41:02;101667.72;;;15.53;66.94
55010;BME280;40903;51.638;7.528;2023-05-20T06:43:28;101674.75;;;15.59;66.68
55010;BME280;40903;51.638;7.528;2023-05-20T06:45:53;101667.22;;;15.51;68.03
55010;BME280;40903;51.638;7.528;2023-05-20T06:48:19;101671.38;;;15.49;67.63
55010;BME280;40903;51.638;7.528;2023-05-20T06:50:44;101667.59;;;15.45;67.56
55010;BME280;40903;51.638;7.528;2023-05-20T06:53:09;101667.41;;;15.55;68.81
55010;BME280;40903;51.638;7.528;2023-05-20T06:55:36;101666.38;;;15.51;68.83
55010;BME280;40903;51.638;7.528;2023-05-20T06:58:01;101670.34;;;15.45;70.03
55010;BME280;40903;51.638;7.528;2023-05-20T07:00:27;101675.31;;;15.43;68.78
55010;BME280;40903;51.638;7.528;2023-05-20T07:02:52;101677.16;;;15.29;69.20
55010;BME280;40903;51.638;7.528;2023-05-20T07:05:18;101677.22;;;15.24;69.92
55010;BME280;40903;51.638;7.528;2023-05-20T07:07:43;101668.97;;;15.24;69.93
55010;BME280;40903;51.638;7.528;2023-05-20T07:10:09;101672.50;;;15.29;70.98
55010;BME280;40903;51.638;7.528;2023-05-20T07:12:34;101664.75;;;15.31;70.81
55010;BME280;40903;51.638;7.528;2023-05-20T07:14:59;101671.19;;;15.22;70.60
55010;BME280;40903;51.638;7.528;2023-05-20T07:17:25;101681.63;;;15.25;70.66
55010;BME280;40903;51.638;7.528;2023-05-20T07:19:51;101667.56;;;15.26;70.54
55010;BME280;40903;51.638;7.528;2023-05-20T07:22:17;101664.31;;;15.24;70.58
55010;BME280;40903;51.638;7.528;2023-05-20T07:24:43;101657.91;;;15.29;71.04
55010;BME280;40903;51.638;7.528;2023-05-20T07:27:09;101664.53;;;15.28;69.72
55010;BME280;40903;51.638;7.528;2023-05-20T07:29:35;101662.38;;;15.25;70.52
55010;BME280;40903;51.638;7.528;2023-05-20T07:32:02;101653.53;;;15.28;71.94
55010;BME280;40903;51.638;7.528;2023-05-20T07:34:28;101652.13;;;15.30;70.14
55010;BME280;40903;51.638;7.528;2023-05-20T07:36:53;101656.97;;;15.38;69.90
55010;BME280;40903;51.638;7.528;2023-05-20T07:39:18;101652.88;;;15.36;69.12
55010;BME280;40903;51.638;7.528;2023-05-20T07:41:44;101651.25;;;15.35;70.05
55010;BME280;40903;51.638;7.528;2023-05-20T07:44:09;101657.72;;;15.44;69.01
55010;BME280;40903;51.638;7.528;2023-05-20T07:46:38;101651.22;;;15.53;69.68
55010;BME280;40903;51.638;7.528;2023-05-20T07:49:04;101645.63;;;15.58;70.37
55010;BME280;40903;51.638;7.528;2023-05-20T07:51:29;101652.09;;;15.67;69.73
55010;BME280;40903;51.638;7.528;2023-05-20T07:53:56;101650.34;;;15.71;69.30
55010;BME280;40903;51.638;7.528;2023-05-20T07:56:21;101650.09;;;15.86;69.24
55010;BME280;40903;51.638;7.528;2023-05-20T07:58:57;101652.47;;;16.06;69.14
55010;BME280;40903;51.638;7.528;2023-05-20T08:01:23;101652.16;;;16.21;68.33
55010;BME280;40903;51.638;7.528;2023-05-20T08:03:49;101643.22;;;16.15;67.14
55010;BME280;40903;51.638;7.528;2023-05-20T08:06:14;101648.00;;;16.23;67.58
55010;BME280;40903;51.638;7.528;2023-05-20T08:08:40;101653.50;;;16.23;67.76
55010;BME280;40903;51.638;7.528;2023-05-20T08:11:06;101653.72;;;16.27;67.47
55010;BME280;40903;51.638;7.528;2023-05-20T08:13:31;101653.13;;;16.43;67.45
55010;BME280;40903;51.638;7.528;2023-05-20T08:15:57;101659.25;;;16.40;66.33
55010;BME280;40903;51.638;7.528;2023-05-20T08:18:22;101642.22;;;16.38;66.74
55010;BME280;40903;51.638;7.528;2023-05-20T08:20:49;101648.19;;;16.13;67.27
55010;BME280;40903;51.638;7.528;2023-05-20T08:23:15;101648.00;;;16.10;67.92
55010;BME280;40903;51.638;7.528;2023-05-20T08:25:40;101648.19;;;16.13;68.20
55010;BME280;40903;51.638;7.528;2023-05-20T08:28:05;101645.25;;;16.23;68.23
55010;BME280;40903;51.638;7.528;2023-05-20T08:30:32;101654.31;;;16.10;66.96
55010;BME280;40903;51.638;7.528;2023-05-20T08:32:58;101649.69;;;16.06;67.98
55010;BME280;40903;51.638;7.528;2023-05-20T08:35:24;101644.69;;;15.94;68.73
55010;BME280;40903;51.638;7.528;2023-05-20T08:37:50;101642.69;;;16.00;67.84
55010;BME280;40903;51.638;7.528;2023-05-20T08:40:18;101642.38;;;16.01;68.57
55010;BME280;40903;51.638;7.528;2023-05-20T08:42:46;101648.41;;;16.17;69.32
55010;BME280;40903;51.638;7.528;2023-05-20T08:45:18;101651.97;;;16.17;67.77
55010;BME280;40903;51.638;7.528;2023-05-20T08:47:44;101645.34;;;16.18;68.77
55010;BME280;40903;51.638;7.528;2023-05-20T08:50:11;101650.34;;;16.16;68.54
55010;BME280;40903;51.638;7.528;2023-05-20T08:52:41;101643.22;;;16.29;68.68
55010;BME280;40903;51.638;7.528;2023-05-20T08:55:13;101649.06;;;16.41;68.92
55010;BME280;40903;51.638;7.528;2023-05-20T08:57:39;101635.91;;;16.51;68.29
55010;BME280;40903;51.638;7.528;2023-05-20T09:00:07;101638.53;;;16.56;67.29
55010;BME280;40903;51.638;7.528;2023-05-20T09:02:39;101638.22;;;16.44;67.45
55010;BME280;40903;51.638;7.528;2023-05-20T09:05:05;101640.50;;;16.56;66.34
55010;BME280;40903;51.638;7.528;2023-05-20T09:07:31;101645.56;;;16.49;67.08
55010;BME280;40903;51.638;7.528;2023-05-20T09:09:57;101641.00;;;16.58;67.76
55010;BME280;40903;51.638;7.528;2023-05-20T09:12:22;101640.16;;;16.57;66.80
55010;BME280;40903;51.638;7.528;2023-05-20T09:14:48;101637.91;;;16.59;66.79
55010;BME280;40903;51.638;7.528;2023-05-20T09:17:13;101625.97;;;16.64;66.99
55010;BME280;40903;51.638;7.528;2023-05-20T09:19:39;101629.34;;;16.61;67.63
55010;BME280;40903;51.638;7.528;2023-05-20T09:22:05;101630.88;;;16.67;66.22
55010;BME280;40903;51.638;7.528;2023-05-20T09:24:31;101633.00;;;16.83;66.29
55010;BME280;40903;51.638;7.528;2023-05-20T09:26:57;101624.16;;;16.95;67.75
55010;BME280;40903;51.638;7.528;2023-05-20T09:29:23;101626.84;;;17.00;65.93
55010;BME280;40903;51.638;7.528;2023-05-20T09:31:49;101628.97;;;17.03;66.55
55010;BME280;40903;51.638;7.528;2023-05-20T09:34:15;101623.03;;;16.96;66.27
55010;BME280;40903;51.638;7.528;2023-05-20T09:36:42;101620.72;;;16.89;66.89
55010;BME280;40903;51.638;7.528;2023-05-20T09:39:13;101615.41;;;16.93;67.20
55010;BME280;40903;51.638;7.528;2023-05-20T09:42:03;101611.56;;;17.16;68.29
55010;BME280;40903;51.638;7.528;2023-05-20T09:44:30;101616.38;;;17.46;67.79
55010;BME280;40903;51.638;7.528;2023-05-20T09:46:58;101618.25;;;17.59;66.41
55010;BME280;40903;51.638;7.528;2023-05-20T09:49:25;101614.00;;;17.83;66.59
55010;BME280;40903;51.638;7.528;2023-05-20T09:51:51;101615.00;;;17.87;64.50
55010;BME280;40903;51.638;7.528;2023-05-20T09:54:18;101613.28;;;18.08;63.71
55010;BME280;40903;51.638;7.528;2023-05-20T09:56:45;101612.72;;;18.19;63.46
55010;BME280;40903;51.638;7.528;2023-05-20T09:59:14;101608.53;;;18.30;63.67
55010;BME280;40903;51.638;7.528;2023-05-20T10:01:39;101604.59;;;18.23;62.13
55010;BME280;40903;51.638;7.528;2023-05-20T10:04:06;101602.66;;;18.23;64.12
55010;BME280;40903;51.638;7.528;2023-05-20T10:09:37;101600.97;;;18.61;61.13
55010;BME280;40903;51.638;7.528;2023-05-20T10:12:26;101595.00;;;18.76;64.20
55010;BME280;40903;51.638;7.528;2023-05-20T10:19:47;101580.38;;;19.27;62.71
55010;BME280;40903;51.638;7.528;2023-05-20T10:22:24;101582.47;;;19.55;60.91
55010;BME280;40903;51.638;7.528;2023-05-20T10:24:58;101570.19;;;19.82;59.30
55010;BME280;40903;51.638;7.528;2023-05-20T10:27:24;101572.88;;;19.98;59.54
55010;BME280;40903;51.638;7.528;2023-05-20T10:29:55;101562.22;;;20.17;58.06
55010;BME280;40903;51.638;7.528;2023-05-20T10:32:28;101562.38;;;20.21;56.77
55010;BME280;40903;51.638;7.528;2023-05-20T10:35:03;101551.81;;;20.43;55.61
55010;BME280;40903;51.638;7.528;2023-05-20T10:37:40;101557.72;;;20.62;55.07
55010;BME280;40903;51.638;7.528;2023-05-20T10:42:32;101548.75;;;21.06;56.71
55010;BME280;40903;51.638;7.528;2023-05-20T10:44:57;101555.41;;;21.26;53.90
55010;BME280;40903;51.638;7.528;2023-05-20T10:47:23;101558.78;;;21.31;52.16
55010;BME280;40903;51.638;7.528;2023-05-20T10:49:48;101559.69;;;21.23;51.69
55010;BME280;40903;51.638;7.528;2023-05-20T10:52:18;101555.22;;;21.10;50.99
55010;BME280;40903;51.638;7.528;2023-05-20T10:55:02;101549.44;;;21.03;51.24
55010;BME280;40903;51.638;7.528;2023-05-20T10:57:29;101542.31;;;21.14;54.11
55010;BME280;40903;51.638;7.528;2023-05-20T10:59:55;101540.06;;;21.40;53.10
55010;BME280;40903;51.638;7.528;2023-05-20T11:02:20;101539.19;;;21.16;50.66
55010;BME280;40903;51.638;7.528;2023-05-20T11:04:51;101536.38;;;21.36;50.62
55010;BME280;40903;51.638;7.528;2023-05-20T11:07:43;101531.09;;;21.55;51.41
55010;BME280;40903;51.638;7.528;2023-05-20T11:10:09;101536.53;;;21.52;51.29
55010;BME280;40903;51.638;7.528;2023-05-20T11:12:34;101530.25;;;21.75;51.61
55010;BME280;40903;51.638;7.528;2023-05-20T11:15:00;101526.31;;;21.76;50.83
55010;BME280;40903;51.638;7.528;2023-05-20T11:17:25;101529.09;;;21.76;50.30
55010;BME280;40903;51.638;7.528;2023-05-20T11:19:51;101526.13;;;21.61;50.60
55010;BME280;40903;51.638;7.528;2023-05-20T11:22:16;101534.84;;;21.27;49.38
55010;BME280;40903;51.638;7.528;2023-05-20T11:24:41;101531.19;;;21.47;50.44
55010;BME280;40903;51.638;7.528;2023-05-20T11:27:07;101530.06;;;21.60;49.64
55010;BME280;40903;51.638;7.528;2023-05-20T11:29:33;101523.28;;;21.69;51.75
55010;BME280;40903;51.638;7.528;2023-05-20T11:31:59;101524.81;;;21.67;50.07
55010;BME280;40903;51.638;7.528;2023-05-20T11:34:25;101521.47;;;21.41;48.90
55010;BME280;40903;51.638;7.528;2023-05-20T11:36:57;101518.91;;;21.68;49.84
55010;BME280;40903;51.638;7.528;2023-05-20T11:39:24;101520.19;;;21.71;50.86
55010;BME280;40903;51.638;7.528;2023-05-20T11:41:51;101524.03;;;22.02;51.20
55010;BME280;40903;51.638;7.528;2023-05-20T11:44:18;101524.25;;;22.09;49.38
55010;BME280;40903;51.638;7.528;2023-05-20T11:46:47;101520.75;;;22.00;47.77
55010;BME280;40903;51.638;7.528;2023-05-20T11:49:13;101515.81;;;21.94;48.08
55010;BME280;40903;51.638;7.528;2023-05-20T11:51:39;101512.09;;;21.90;47.96
55010;BME280;40903;51.638;7.528;2023-05-20T11:54:06;101516.38;;;21.87;47.86
55010;BME280;40903;51.638;7.528;2023-05-20T11:56:33;101513.50;;;21.96;47.47
55010;BME280;40903;51.638;7.528;2023-05-20T11:59:01;101498.09;;;22.10;49.62
55010;BME280;40903;51.638;7.528;2023-05-20T12:01:39;101499.56;;;22.19;48.03
55010;BME280;40903;51.638;7.528;2023-05-20T12:04:09;101495.91;;;22.39;47.24
55010;BME280;40903;51.638;7.528;2023-05-20T12:06:35;101495.28;;;22.34;46.20
55010;BME280;40903;51.638;7.528;2023-05-20T12:09:05;101484.66;;;22.12;48.08
55010;BME280;40903;51.638;7.528;2023-05-20T12:11:35;101479.91;;;22.24;48.14
55010;BME280;40903;51.638;7.528;2023-05-20T12:14:02;101480.25;;;22.23;47.15
55010;BME280;40903;51.638;7.528;2023-05-20T12:16:29;101478.06;;;22.40;47.49
55010;BME280;40903;51.638;7.528;2023-05-20T12:18:55;101484.25;;;22.61;46.32
55010;BME280;40903;51.638;7.528;2023-05-20T12:21:20;101484.13;;;22.58;45.85
55010;BME280;40903;51.638;7.528;2023-05-20T12:23:46;101481.84;;;22.36;46.53
55010;BME280;40903;51.638;7.528;2023-05-20T12:26:11;101472.94;;;22.30;45.85
55010;BME280;40903;51.638;7.528;2023-05-20T12:28:36;101471.09;;;22.22;47.32
55010;BME280;40903;51.638;7.528;2023-05-20T12:31:02;101465.16;;;22.36;47.90
55010;BME280;40903;51.638;7.528;2023-05-20T12:33:27;101472.09;;;22.54;46.97
55010;BME280;40903;51.638;7.528;2023-05-20T12:35:53;101467.97;;;22.48;47.17
55010;BME280;40903;51.638;7.528;2023-05-20T12:38:18;101467.50;;;22.34;48.71
55010;BME280;40903;51.638;7.528;2023-05-20T12:40:44;101464.53;;;22.03;47.43
55010;BME280;40903;51.638;7.528;2023-05-20T12:43:09;101463.84;;;22.06;48.94
55010;BME280;40903;51.638;7.528;2023-05-20T12:45:34;101466.72;;;21.86;47.73
55010;BME280;40903;51.638;7.528;2023-05-20T12:48:00;101462.28;;;21.61;50.20
55010;BME280;40903;51.638;7.528;2023-05-20T12:50:26;101453.53;;;21.71;49.20
55010;BME280;40903;51.638;7.528;2023-05-20T12:52:51;101454.13;;;21.64;49.26
55010;BME280;40903;51.638;7.528;2023-05-20T12:55:17;101457.00;;;21.68;47.97
55010;BME280;40903;51.638;7.528;2023-05-20T12:57:43;101458.53;;;21.77;48.16